Time;durP1;ratioP1;P1;durP2;ratioP2;P2;SDS_P1;SDS_P2;PMS_P1;PMS_P2;Temp;Humidity;BMP_temperature;BMP_pressure;BME280_temperature;BME280_humidity;BME280_pressure;Samples;Min_cycle;Max_cycle;Signal;HPM_P1;HPM_P2
2023/04/17 00:01:37;;;;;;;20.00;9.75;;;;;;;17.77;45.74;102249.91;5034820;28;20042;-65
2023/04/17 00:04:03;;;;;;;22.85;9.65;;;;;;;17.75;46.81;102254.63;5018276;28;20079;-66
2023/04/17 00:06:28;;;;;;;18.50;9.77;;;;;;;17.72;45.59;102253.06;5034763;28;20424;-65
2023/04/17 00:08:54;;;;;;;21.65;11.00;;;;;;;17.69;45.65;102250.63;5018102;28;20412;-65
2023/04/17 00:11:20;;;;;;;20.60;10.30;;;;;;;17.66;45.84;102248.19;5017833;28;20034;-65
2023/04/17 00:13:45;;;;;;;20.45;9.98;;;;;;;17.66;46.47;102244.59;5034264;28;20528;-65
2023/04/17 00:16:12;;;;;;;23.30;10.48;;;;;;;17.66;46.81;102240.06;5034374;28;20508;-65
2023/04/17 00:18:38;;;;;;;19.33;9.77;;;;;;;17.65;46.88;102243.75;5034460;28;20030;-66
2023/04/17 00:21:03;;;;;;;26.38;9.77;;;;;;;17.64;46.37;102241.19;5035840;28;20044;-66
2023/04/17 00:23:29;;;;;;;20.33;10.25;;;;;;;17.62;47.20;102232.31;5002839;28;20029;-66
2023/04/17 00:25:54;;;;;;;25.80;10.82;;;;;;;17.58;46.49;102237.19;5034597;28;20132;-66
2023/04/17 00:28:19;;;;;;;24.40;11.27;;;;;;;17.56;46.55;102241.03;5034098;28;20401;-66
2023/04/17 00:30:45;;;;;;;23.77;11.40;;;;;;;17.52;47.02;102236.84;5034413;28;20481;-65
2023/04/17 00:33:11;;;;;;;21.30;10.50;;;;;;;17.51;46.16;102241.41;5033897;28;20386;-66
2023/04/17 00:35:36;;;;;;;19.83;10.63;;;;;;;17.52;46.18;102240.41;5033947;28;20029;-67
2023/04/17 00:38:01;;;;;;;21.92;11.38;;;;;;;17.49;47.08;102243.41;5017246;28;20060;-65
2023/04/17 00:40:27;;;;;;;20.02;9.82;;;;;;;17.50;45.78;102245.13;5000785;28;20033;-66
2023/04/17 00:43:02;;;;;;;27.48;11.45;;;;;;;17.50;46.69;102250.56;5033610;28;20025;-65
2023/04/17 00:45:28;;;;;;;23.08;10.43;;;;;;;17.50;46.63;102245.13;5034225;28;20488;-66
2023/04/17 00:47:54;;;;;;;22.08;11.20;;;;;;;17.50;46.93;102237.00;5033887;28;20517;-65
2023/04/17 00:50:19;;;;;;;24.88;9.95;;;;;;;17.50;46.98;102236.13;5018891;28;20080;-65
2023/04/17 00:52:45;;;;;;;23.85;11.02;;;;;;;17.51;46.27;102236.00;5018001;28;20409;-66
2023/04/17 00:55:11;;;;;;;26.48;11.02;;;;;;;17.50;46.83;102234.28;5017216;28;20025;-65
2023/04/17 00:57:37;;;;;;;22.08;11.32;;;;;;;17.48;47.35;102236.25;5050968;28;20021;-66
2023/04/17 01:00:03;;;;;;;23.85;10.65;;;;;;;17.44;47.03;102235.72;5034401;28;20455;-65
2023/04/17 01:02:28;;;;;;;20.40;10.68;;;;;;;17.42;45.77;102229.56;5018902;28;20033;-67
2023/04/17 01:04:54;;;;;;;24.00;11.05;;;;;;;17.46;45.67;102235.56;5037140;28;20406;-66
2023/04/17 01:07:19;;;;;;;22.67;11.07;;;;;;;17.45;46.74;102231.97;5033611;28;20033;-65
2023/04/17 01:09:45;;;;;;;21.60;9.82;;;;;;;17.48;46.10;102230.84;5017476;28;20118;-67
2023/04/17 01:12:20;;;;;;;20.80;11.27;;;;;;;17.48;46.82;102231.72;5017216;28;20159;-67
2023/04/17 01:14:46;;;;;;;28.95;12.93;;;;;;;17.47;46.41;102234.56;5016720;28;20033;-67
2023/04/17 01:17:14;;;;;;;25.85;10.65;;;;;;;17.48;46.38;102237.13;5034473;28;20037;-66
2023/04/17 01:19:40;;;;;;;26.83;10.70;;;;;;;17.50;46.89;102233.44;5034419;28;20037;-66
2023/04/17 01:22:06;;;;;;;27.70;11.70;;;;;;;17.47;46.29;102232.69;5017088;28;20547;-65
2023/04/17 01:24:32;;;;;;;22.77;10.82;;;;;;;17.49;46.48;102238.00;5033394;28;20550;-65
2023/04/17 01:26:57;;;;;;;22.55;11.75;;;;;;;17.49;46.43;102232.56;5033207;28;20034;-65
2023/04/17 01:29:23;;;;;;;23.20;10.57;;;;;;;17.49;47.14;102232.56;4999735;28;20033;-65
2023/04/17 01:31:48;;;;;;;22.08;9.43;;;;;;;17.47;45.97;102229.97;5016494;28;20112;-65
2023/04/17 01:34:14;;;;;;;22.58;10.40;;;;;;;17.47;45.95;102229.97;5032745;28;20029;-65
2023/04/17 01:36:40;;;;;;;23.63;10.77;;;;;;;17.48;46.15;102236.25;5033592;28;20031;-65
2023/04/17 01:39:06;;;;;;;22.70;11.65;;;;;;;17.48;47.17;102230.84;5034631;28;20033;-67
2023/04/17 01:41:31;;;;;;;21.60;10.93;;;;;;;17.49;47.44;102232.56;5035280;28;20106;-66
2023/04/17 01:43:57;;;;;;;25.48;12.13;;;;;;;17.47;47.23;102226.44;5033331;28;20493;-65
2023/04/17 01:46:22;;;;;;;26.73;10.85;;;;;;;17.50;47.07;102233.44;4999740;28;20557;-65
2023/04/17 01:48:47;;;;;;;25.92;11.52;;;;;;;17.50;46.25;102228.88;5016301;28;20025;-65
2023/04/17 01:51:13;;;;;;;20.70;10.18;;;;;;;17.48;46.43;102220.88;5033137;28;20112;-65
2023/04/17 01:53:39;;;;;;;25.42;11.27;;;;;;;17.47;46.32;102226.44;5033569;28;20033;-65
2023/04/17 01:56:04;;;;;;;26.92;11.27;;;;;;;17.47;45.96;102229.97;5032471;28;20065;-65
2023/04/17 01:58:30;;;;;;;27.02;11.27;;;;;;;17.46;46.39;102230.13;5032320;28;20053;-65
2023/04/17 02:00:55;;;;;;;27.77;12.27;;;;;;;17.47;47.09;102235.41;5015704;28;20021;-65
2023/04/17 02:03:23;;;;;;;25.58;11.52;;;;;;;17.48;46.79;102228.13;5016033;28;20021;-65
2023/04/17 02:05:48;;;;;;;22.42;11.15;;;;;;;17.50;45.67;102228.88;5015792;28;20030;-65
2023/04/17 02:08:14;;;;;;;22.52;10.88;;;;;;;17.50;47.14;102234.28;5015825;28;20117;-65
2023/04/17 02:10:42;;;;;;;26.58;10.70;;;;;;;17.50;46.91;102222.59;5032221;28;20132;-65
2023/04/17 02:13:08;;;;;;;21.48;10.43;;;;;;;17.51;46.69;102230.56;5015696;28;20489;-65
2023/04/17 02:15:35;;;;;;;40.05;12.27;;;;;;;17.49;46.92;102221.72;5015979;28;20037;-65
2023/04/17 02:18:02;;;;;;;21.05;11.05;;;;;;;17.50;46.86;102234.28;5031921;28;20025;-65
2023/04/17 02:20:28;;;;;;;21.10;10.05;;;;;;;17.49;46.96;102232.56;5033198;28;20116;-65
2023/04/17 02:22:54;;;;;;;24.23;10.88;;;;;;;17.47;46.23;102229.16;5031872;28;20213;-65
2023/04/17 02:25:19;;;;;;;17.40;10.18;;;;;;;17.46;46.16;102228.28;5031946;28;20036;-65
2023/04/17 02:27:45;;;;;;;22.70;10.52;;;;;;;17.45;47.42;102233.84;5015723;28;20026;-65
2023/04/17 02:30:12;;;;;;;26.85;10.88;;;;;;;17.45;46.91;102231.13;5016102;28;20519;-66
2023/04/17 02:32:37;;;;;;;21.23;10.55;;;;;;;17.43;46.20;102233.13;5015527;28;20087;-65
2023/04/17 02:35:03;;;;;;;21.45;10.95;;;;;;;17.44;46.87;102234.84;5031541;28;20056;-65
2023/04/17 02:37:28;;;;;;;20.77;9.30;;;;;;;17.46;46.43;102230.13;5031670;28;20026;-65
2023/04/17 02:39:54;;;;;;;24.40;11.35;;;;;;;17.45;46.44;102231.97;5031650;28;20042;-66
2023/04/17 02:42:20;;;;;;;25.58;11.20;;;;;;;17.43;45.66;102233.13;5032317;28;20028;-66
2023/04/17 02:44:45;;;;;;;19.80;9.88;;;;;;;17.42;45.76;102225.97;5031600;28;20030;-65
2023/04/17 02:47:11;;;;;;;23.35;11.00;;;;;;;17.41;46.87;102229.72;5031539;28;20045;-65
2023/04/17 02:49:37;;;;;;;20.92;10.20;;;;;;;17.39;46.13;102235.25;5031470;28;20040;-66
2023/04/17 02:52:03;;;;;;;22.42;11.20;;;;;;;17.33;46.87;102226.84;5015059;28;20104;-65
2023/04/17 02:54:28;;;;;;;26.13;10.70;;;;;;;17.32;46.36;102227.81;5015392;28;20085;-66
2023/04/17 02:56:57;;;;;;;23.42;11.02;;;;;;;17.33;46.95;102226.84;4998653;28;20087;-65
2023/04/17 02:59:25;;;;;;;20.08;10.30;;;;;;;17.33;46.79;102221.41;4999592;28;20059;-66
2023/04/17 03:01:51;;;;;;;24.85;11.07;;;;;;;17.34;46.86;102234.81;5027331;28;20041;-65
2023/04/17 03:04:16;;;;;;;26.08;11.10;;;;;;;17.33;46.96;102225.00;5051708;28;20584;-66
2023/04/17 03:06:42;;;;;;;22.77;10.68;;;;;;;17.32;46.05;102225.09;5036220;28;20036;-66
2023/04/17 03:09:07;;;;;;;24.15;10.10;;;;;;;17.31;46.61;102229.66;5054395;28;20374;-66
2023/04/17 03:11:33;;;;;;;23.90;9.95;;;;;;;17.29;46.39;102225.38;5051723;28;20075;-66
2023/04/17 03:13:58;;;;;;;27.20;11.10;;;;;;;17.28;47.35;102221.81;5051327;28;20033;-66
2023/04/17 03:16:24;;;;;;;23.20;9.90;;;;;;;17.27;47.05;102221.97;5034889;28;20025;-65
2023/04/17 03:18:49;;;;;;;24.90;10.82;;;;;;;17.28;46.44;102224.53;5068354;28;20159;-64
2023/04/17 03:21:14;;;;;;;23.95;10.32;;;;;;;17.30;47.01;102227.09;5052319;28;20499;-65
2023/04/17 03:23:40;;;;;;;23.17;11.00;;;;;;;17.28;47.15;102229.09;5051308;28;20040;-65
2023/04/17 03:26:06;;;;;;;23.67;11.20;;;;;;;17.29;47.41;102228.09;5051714;28;20036;-66
2023/04/17 03:28:31;;;;;;;30.08;11.57;;;;;;;17.28;47.05;102223.69;5051497;28;20037;-65
2023/04/17 03:30:58;;;;;;;25.38;11.35;;;;;;;17.27;47.14;102230.09;5051244;28;20029;-66
2023/04/17 03:33:24;;;;;;;21.05;10.27;;;;;;;17.25;46.31;102224.78;5035201;28;20098;-66
2023/04/17 03:35:50;;;;;;;31.23;11.20;;;;;;;17.25;46.77;102223.97;5034588;28;20033;-66
2023/04/17 03:38:17;;;;;;;27.35;12.40;;;;;;;17.24;46.35;102222.25;5052960;28;20033;-65
2023/04/17 03:40:42;;;;;;;29.05;11.38;;;;;;;17.23;47.28;102223.22;5034705;28;20033;-65
2023/04/17 03:43:08;;;;;;;25.70;10.90;;;;;;;17.22;45.91;102224.25;5051178;28;20087;-66
2023/04/17 03:45:33;;;;;;;24.42;10.52;;;;;;;17.23;47.46;102225.94;5035109;28;20041;-66
2023/04/17 03:47:58;;;;;;;24.38;10.60;;;;;;;17.24;46.60;102219.53;5050906;28;20041;-66
2023/04/17 03:50:24;;;;;;;27.45;10.57;;;;;;;17.22;45.97;102224.25;5051061;28;20044;-65
2023/04/17 03:52:49;;;;;;;27.30;12.25;;;;;;;17.21;46.75;102217.09;5051938;28;20112;-65
2023/04/17 03:55:15;;;;;;;29.65;11.52;;;;;;;17.23;47.10;102220.50;5037981;28;20035;-65
2023/04/17 03:57:41;;;;;;;25.90;10.90;;;;;;;17.23;46.21;102215.09;5038648;28;20503;-65
2023/04/17 04:00:09;;;;;;;26.95;11.25;;;;;;;17.23;46.59;102224.09;5055362;28;20578;-66
2023/04/17 04:02:35;;;;;;;25.33;11.18;;;;;;;17.23;47.79;102220.50;5054398;28;20064;-66
2023/04/17 04:05:00;;;;;;;30.33;11.77;;;;;;;17.22;46.54;102222.41;5037698;28;20504;-66
2023/04/17 04:07:26;;;;;;;28.33;11.93;;;;;;;17.18;46.61;102223.66;5054367;28;20045;-65
2023/04/17 04:09:51;;;;;;;23.23;11.57;;;;;;;17.14;46.12;102226.78;5054448;28;20021;-65
2023/04/17 04:12:17;;;;;;;28.27;11.85;;;;;;;17.11;47.99;102233.34;5038281;28;20068;-65
2023/04/17 04:14:42;;;;;;;23.63;11.32;;;;;;;17.11;47.44;102230.63;5054295;28;20041;-66
2023/04/17 04:17:07;;;;;;;28.58;11.80;;;;;;;17.10;47.42;102242.44;5037861;28;20025;-65
2023/04/17 04:19:33;;;;;;;32.97;12.70;;;;;;;17.06;46.85;102223.88;5055358;28;20036;-65
2023/04/17 04:21:58;;;;;;;28.45;12.40;;;;;;;17.05;48.06;102233.00;5054096;28;20502;-65
2023/04/17 04:24:24;;;;;;;33.45;12.10;;;;;;;17.04;47.34;102231.28;5055591;28;20028;-66
2023/04/17 04:26:49;;;;;;;27.63;12.20;;;;;;;17.03;47.38;102230.44;5053968;28;20555;-65
2023/04/17 04:29:15;;;;;;;31.80;14.00;;;;;;;17.03;47.35;102233.13;5037606;28;20412;-66
2023/04/17 04:31:41;;;;;;;31.90;12.88;;;;;;;17.01;47.76;102228.84;5020848;28;20116;-65
2023/04/17 04:34:07;;;;;;;34.70;13.18;;;;;;;17.01;47.32;102236.97;5037442;28;20116;-65
2023/04/17 04:36:35;;;;;;;28.02;11.85;;;;;;;16.99;47.74;102244.38;5037922;28;20127;-66
2023/04/17 04:39:04;;;;;;;34.28;12.40;;;;;;;16.97;48.01;102236.41;5054284;28;20037;-65
2023/04/17 04:41:32;;;;;;;28.67;12.60;;;;;;;16.96;46.94;102237.38;5054428;28;20079;-66
2023/04/17 04:43:58;;;;;;;28.48;12.00;;;;;;;16.99;47.50;102238.97;5022126;28;20527;-67
2023/04/17 04:46:25;;;;;;;31.83;13.20;;;;;;;16.89;47.52;102223.53;5054735;28;20068;-65
2023/04/17 04:48:50;;;;;;;34.45;12.82;;;;;;;17.00;47.89;102240.69;5022750;28;20071;-65
2023/04/17 04:51:17;;;;;;;38.92;12.35;;;;;;;16.99;47.19;102241.69;5039570;28;20536;-65
2023/04/17 04:53:43;;;;;;;29.30;12.02;;;;;;;16.99;47.58;102238.97;5039278;28;20036;-66
2023/04/17 04:56:09;;;;;;;28.23;12.93;;;;;;;16.98;47.71;102253.47;5054698;28;20037;-65
2023/04/17 04:58:34;;;;;;;32.10;13.07;;;;;;;16.98;47.67;102248.06;5055976;28;20053;-68
2023/04/17 05:01:00;;;;;;;40.03;14.32;;;;;;;16.98;48.06;102248.06;5054067;28;20031;-65
2023/04/17 05:03:25;;;;;;;33.17;14.93;;;;;;;16.96;48.01;102239.25;5054108;28;20017;-66
2023/04/17 05:05:50;;;;;;;34.83;14.27;;;;;;;16.97;46.69;102257.22;5053090;28;20029;-65
2023/04/17 05:08:16;;;;;;;32.15;13.55;;;;;;;16.95;47.72;102248.34;5036611;28;20037;-65
2023/04/17 05:10:41;;;;;;;38.05;14.70;;;;;;;16.96;47.06;102250.94;5038377;28;20041;-65
2023/04/17 05:13:06;;;;;;;40.97;15.45;;;;;;;16.98;47.51;102257.06;5055310;28;20044;-65
2023/04/17 05:15:32;;;;;;;34.65;14.80;;;;;;;16.97;48.06;102259.91;5039228;28;20025;-65
2023/04/17 05:17:57;;;;;;;33.88;14.65;;;;;;;16.94;48.05;102254.75;5020126;28;20036;-65
2023/04/17 05:20:25;;;;;;;35.60;14.48;;;;;;;16.94;47.72;102257.47;5036721;28;20090;-65
2023/04/17 05:22:50;;;;;;;39.33;15.35;;;;;;;16.92;47.74;102264.88;5053139;28;20029;-64
2023/04/17 05:25:16;;;;;;;38.95;14.95;;;;;;;16.92;47.99;102267.59;5036280;28;20033;-65
2023/04/17 05:27:42;;;;;;;33.70;14.63;;;;;;;16.91;47.48;102263.16;5053287;28;20480;-65
2023/04/17 05:30:08;;;;;;;32.85;13.57;;;;;;;16.87;47.31;102260.72;5052865;28;20048;-65
2023/04/17 05:32:34;;;;;;;45.25;13.98;;;;;;;16.86;48.35;102267.09;5052666;28;20421;-65
2023/04/17 05:34:59;;;;;;;37.60;14.50;;;;;;;16.87;48.12;102268.84;5036260;28;20121;-65
2023/04/17 05:37:25;;;;;;;31.58;14.20;;;;;;;16.88;47.72;102262.44;5052732;28;20083;-65
2023/04/17 05:39:50;;;;;;;44.45;15.98;;;;;;;16.91;47.72;102268.56;5054144;28;20037;-66
2023/04/17 05:42:16;;;;;;;38.85;15.93;;;;;;;16.91;47.70;102269.44;5053072;28;20048;-65
2023/04/17 05:44:41;;;;;;;34.20;16.15;;;;;;;16.92;48.65;102270.28;5019374;28;20041;-67
2023/04/17 05:47:07;;;;;;;39.40;14.50;;;;;;;16.95;48.17;102272.69;5019637;28;20460;-66
2023/04/17 05:49:32;;;;;;;38.78;15.32;;;;;;;16.96;47.96;102269.00;5036051;28;20049;-65
2023/04/17 05:51:58;;;;;;;37.25;15.73;;;;;;;16.97;47.99;102268.91;5053580;28;20560;-65
2023/04/17 05:54:23;;;;;;;40.25;15.82;;;;;;;17.01;47.72;102267.63;5052052;28;20029;-65
2023/04/17 05:56:48;;;;;;;35.17;14.60;;;;;;;17.03;47.95;102267.50;5052414;28;20029;-66
2023/04/17 05:59:14;;;;;;;36.15;14.18;;;;;;;17.02;47.35;102272.06;5051859;28;20076;-65
2023/04/17 06:01:40;;;;;;;32.17;14.27;;;;;;;17.05;47.19;102276.34;5035593;28;20047;-66
2023/04/17 06:04:05;;;;;;;31.52;14.00;;;;;;;17.04;48.53;102280.03;5051149;28;20107;-65
2023/04/17 06:06:32;;;;;;;40.58;14.13;;;;;;;17.06;48.54;102283.44;5035969;28;20104;-65
2023/04/17 06:08:57;;;;;;;34.10;15.55;;;;;;;17.03;47.78;102281.03;5052159;28;20033;-65
2023/04/17 06:11:24;;;;;;;35.78;15.02;;;;;;;17.07;47.42;102287.88;5035632;28;20067;-65
2023/04/17 06:13:50;;;;;;;33.38;14.32;;;;;;;17.08;48.47;102281.47;5051079;28;20036;-65
2023/04/17 06:16:16;;;;;;;30.73;14.27;;;;;;;17.07;48.24;102290.59;5039602;28;20026;-66
2023/04/17 06:18:41;;;;;;;36.08;15.23;;;;;;;17.04;47.34;102269.19;5046273;28;20036;-64
2023/04/17 06:21:07;;;;;;;37.90;15.93;;;;;;;17.07;47.38;102285.16;5050880;28;20040;-65
2023/04/17 06:23:32;;;;;;;48.45;17.40;;;;;;;17.10;48.33;102284.91;5018702;28;20033;-65
2023/04/17 06:25:58;;;;;;;41.75;16.80;;;;;;;17.11;47.35;102282.06;5035037;28;20057;-64
2023/04/17 06:28:23;;;;;;;35.83;15.82;;;;;;;17.12;47.66;102285.63;5034324;28;20481;-65
2023/04/17 06:30:48;;;;;;;34.30;16.95;;;;;;;17.12;48.38;102294.59;5051863;28;20116;-64
2023/04/17 06:33:14;;;;;;;36.30;14.82;;;;;;;17.18;47.54;102295.91;5035659;28;20507;-65
2023/04/17 06:35:39;;;;;;;42.22;15.82;;;;;;;17.19;48.24;102289.50;5035355;28;20040;-66
2023/04/17 06:38:05;;;;;;;36.30;15.13;;;;;;;17.23;47.68;102293.63;5051554;28;20033;-66
2023/04/17 06:40:31;;;;;;;35.80;16.05;;;;;;;17.24;48.43;102293.53;5051543;28;20420;-65
2023/04/17 06:42:57;;;;;;;40.85;16.15;;;;;;;17.27;47.15;102303.22;5051641;28;20032;-66
2023/04/17 06:45:22;;;;;;;36.97;15.88;;;;;;;17.30;47.84;102303.81;5053491;28;20052;-66
2023/04/17 06:47:47;;;;;;;39.25;16.55;;;;;;;17.32;48.22;102307.22;5051300;28;20505;-65
2023/04/17 06:50:13;;;;;;;38.95;16.50;;;;;;;17.36;47.65;102307.81;5034965;28;20067;-65
2023/04/17 06:52:38;;;;;;;39.40;15.68;;;;;;;17.43;48.05;102317.97;5051259;28;20029;-66
2023/04/17 06:55:04;;;;;;;37.80;16.48;;;;;;;17.45;47.75;102318.69;5042425;28;20034;-66
2023/04/17 06:57:30;;;;;;;35.53;15.30;;;;;;;17.50;47.79;102321.00;5031914;28;20501;-66
2023/04/17 06:59:55;;;;;;;37.83;16.00;;;;;;;17.55;47.56;102307.91;5031286;28;20508;-65
2023/04/17 07:02:20;;;;;;;33.22;15.02;;;;;;;17.61;47.37;102312.78;5033159;28;20056;-66
2023/04/17 07:04:46;;;;;;;31.02;15.77;;;;;;;17.66;47.31;102315.94;5015557;28;20520;-65
2023/04/17 07:07:11;;;;;;;34.50;14.88;;;;;;;17.70;46.75;102301.09;5047076;28;20171;-65
2023/04/17 07:09:37;;;;;;;35.30;14.80;;;;;;;17.75;47.73;102315.13;5053011;28;20111;-65
2023/04/17 07:12:02;;;;;;;34.22;15.20;;;;;;;17.78;48.44;102309.38;5052610;28;20038;-66
2023/04/17 07:14:28;;;;;;;32.10;15.10;;;;;;;17.82;47.23;102321.69;5052524;28;20033;-66
2023/04/17 07:16:54;;;;;;;31.40;14.40;;;;;;;17.84;47.28;102316.97;5051745;28;20033;-65
2023/04/17 07:19:19;;;;;;;34.22;16.33;;;;;;;17.83;47.23;102317.97;5034959;28;20499;-65
2023/04/17 07:21:44;;;;;;;31.77;15.57;;;;;;;17.86;47.84;102330.41;5051722;28;20033;-65
2023/04/17 07:24:10;;;;;;;32.13;15.32;;;;;;;17.85;47.75;102328.66;5051361;28;20083;-65
2023/04/17 07:26:36;;;;;;;34.70;15.52;;;;;;;17.87;46.83;102332.94;5051266;28;20025;-65
2023/04/17 07:29:01;;;;;;;29.75;13.05;;;;;;;17.90;47.29;102335.38;5054288;28;20439;-66
2023/04/17 07:31:27;;;;;;;26.83;13.27;;;;;;;17.90;47.34;102335.38;5055099;28;20120;-65
2023/04/17 07:33:53;;;;;;;30.13;14.30;;;;;;;17.95;48.15;102337.69;5054942;28;20071;-66
2023/04/17 07:36:18;;;;;;;33.00;13.45;;;;;;;17.96;46.86;102348.38;5055390;28;20025;-65
2023/04/17 07:38:43;;;;;;;35.30;13.98;;;;;;;17.95;46.94;102348.53;5038384;28;20550;-66
2023/04/17 07:41:11;;;;;;;32.72;14.95;;;;;;;17.94;47.39;102346.81;5038007;28;20049;-66
2023/04/17 07:43:36;;;;;;;33.85;13.82;;;;;;;17.96;47.68;102350.25;5022164;28;20029;-66
2023/04/17 07:46:02;;;;;;;29.73;14.63;;;;;;;17.96;47.20;102350.25;5022080;28;20020;-65
2023/04/17 07:48:27;;;;;;;27.02;13.93;;;;;;;17.96;46.60;102347.53;5055203;28;20044;-65
2023/04/17 07:50:52;;;;;;;30.48;14.68;;;;;;;17.96;46.84;102348.38;5054864;28;20068;-66
2023/04/17 07:53:18;;;;;;;30.65;14.63;;;;;;;17.95;46.96;102343.94;5054860;28;20033;-65
2023/04/17 07:55:44;;;;;;;28.33;14.30;;;;;;;17.92;47.78;102332.56;5054751;28;20061;-66
2023/04/17 07:58:10;;;;;;;29.75;14.02;;;;;;;17.97;47.50;102339.28;5037840;28;20147;-66
2023/04/17 08:00:37;;;;;;;31.52;14.95;;;;;;;17.96;47.98;102345.69;5037899;28;20077;-65
2023/04/17 08:03:02;;;;;;;30.00;13.57;;;;;;;17.98;46.85;102346.38;5054415;28;20040;-65
2023/04/17 08:05:28;;;;;;;28.90;14.02;;;;;;;18.01;47.84;102348.81;5021064;28;20029;-65
2023/04/17 08:07:53;;;;;;;31.25;14.40;;;;;;;18.03;47.22;102351.41;5037704;28;20072;-65
2023/04/17 08:10:19;;;;;;;29.17;14.00;;;;;;;18.03;46.83;102354.13;5021214;28;20497;-65
2023/04/17 08:12:44;;;;;;;31.23;14.80;;;;;;;18.06;46.95;102356.56;5038514;28;20029;-65
2023/04/17 08:15:10;;;;;;;38.67;15.52;;;;;;;18.10;47.55;102354.41;5054314;28;20116;-65
2023/04/17 08:17:36;;;;;;;25.45;13.45;;;;;;;18.16;47.51;102359.25;5055316;28;20041;-64
2023/04/17 08:20:09;;;;;;;30.67;14.75;;;;;;;18.23;47.61;102360.44;5054173;28;20029;-64
2023/04/17 08:22:42;;;;;;;33.80;15.32;;;;;;;18.28;47.29;102358.16;5054365;28;20511;-65
2023/04/17 08:25:09;;;;;;;27.88;13.80;;;;;;;18.32;46.93;102363.13;5053947;28;20545;-65
2023/04/17 08:27:39;;;;;;;34.00;15.68;;;;;;;18.37;46.89;102362.72;5037517;28;20421;-65
2023/04/17 08:30:05;;;;;;;28.50;13.38;;;;;;;18.47;47.68;102366.28;5021354;28;20033;-64
2023/04/17 08:32:41;;;;;;;32.35;15.23;;;;;;;18.50;47.33;102366.03;5055050;28;20060;-64
2023/04/17 08:35:10;;;;;;;27.95;13.73;;;;;;;18.54;47.10;102370.16;5053667;28;20033;-64
2023/04/17 08:37:35;;;;;;;31.05;15.07;;;;;;;18.59;46.97;102366.03;5037508;28;20037;-64
2023/04/17 08:40:07;;;;;;;31.45;13.98;;;;;;;18.66;47.27;102366.31;5037159;28;20079;-66
2023/04/17 08:42:37;;;;;;;31.23;16.23;;;;;;;18.69;46.68;102368.75;5022273;28;20022;-67
2023/04/17 08:45:05;;;;;;;37.20;14.77;;;;;;;18.77;46.55;102373.44;5037358;28;20040;-65
2023/04/17 08:47:32;;;;;;;33.20;15.30;;;;;;;18.76;46.75;102369.88;5037004;28;20508;-65
2023/04/17 08:49:57;;;;;;;31.23;14.52;;;;;;;18.81;46.10;102370.31;5036870;28;20522;-65
2023/04/17 08:52:23;;;;;;;30.20;14.68;;;;;;;18.89;46.59;102362.28;5036831;28;20102;-64
2023/04/17 08:54:48;;;;;;;31.05;14.20;;;;;;;18.96;46.23;102368.84;5054596;28;20024;-65
2023/04/17 08:57:14;;;;;;;31.92;14.40;;;;;;;19.01;45.78;102360.28;5054997;28;20039;-65
2023/04/17 08:59:41;;;;;;;30.00;14.85;;;;;;;19.08;46.26;102367.69;5053195;28;20099;-65
2023/04/17 09:02:07;;;;;;;28.95;14.48;;;;;;;19.11;45.92;102367.38;5036607;28;20057;-67
2023/04/17 09:04:38;;;;;;;27.80;13.68;;;;;;;19.10;46.04;102367.53;5054554;28;20060;-64
2023/04/17 09:07:05;;;;;;;32.35;13.82;;;;;;;19.13;46.58;102367.22;5039437;28;20455;-65
2023/04/17 09:09:50;;;;;;;28.15;14.02;;;;;;;19.18;45.98;102363.06;5034052;28;20040;-65
2023/04/17 09:12:17;;;;;;;25.63;13.10;;;;;;;19.21;45.88;102371.94;5033415;28;20079;-65
2023/04/17 09:14:43;;;;;;;30.52;14.10;;;;;;;19.18;46.49;102365.78;5033855;28;20034;-65
2023/04/17 09:17:08;;;;;;;29.25;13.43;;;;;;;19.19;46.06;102363.94;5017365;28;20486;-66
2023/04/17 09:19:33;;;;;;;26.75;12.75;;;;;;;19.22;45.92;102373.63;5033640;28;20538;-70
2023/04/17 09:22:18;;;;;;;31.20;13.93;;;;;;;19.22;45.87;102374.50;5017090;28;20040;-67
2023/04/17 09:24:44;;;;;;;32.90;15.13;;;;;;;19.19;46.28;102372.06;5017683;28;20022;-68
2023/04/17 09:27:23;;;;;;;35.97;13.93;;;;;;;19.21;45.90;102371.94;5034009;28;20033;-68
2023/04/17 09:29:55;;;;;;;30.20;14.05;;;;;;;19.19;45.61;102375.66;5032984;28;20034;-68
2023/04/17 09:32:20;;;;;;;30.52;13.57;;;;;;;19.18;45.68;102371.22;5034110;28;20041;-68
2023/04/17 09:34:46;;;;;;;28.02;13.90;;;;;;;19.24;45.80;102364.34;5032674;28;20034;-68
2023/04/17 09:37:12;;;;;;;27.45;12.63;;;;;;;19.31;45.56;102361.91;5033977;28;20045;-68
2023/04/17 09:39:38;;;;;;;33.50;14.13;;;;;;;19.56;45.61;102369.41;5033133;28;20393;-68
2023/04/17 09:42:09;;;;;;;28.33;14.05;;;;;;;19.66;44.94;102367.50;5032665;28;20203;-68
2023/04/17 09:44:36;;;;;;;28.58;13.85;;;;;;;19.75;45.05;102366.59;5016671;28;20091;-68
2023/04/17 09:47:03;;;;;;;27.50;13.70;;;;;;;19.78;45.07;102366.28;5016261;28;20030;-68
2023/04/17 09:49:35;;;;;;;27.23;13.88;;;;;;;19.78;45.32;102371.72;5032494;28;20029;-68
2023/04/17 09:52:01;;;;;;;25.20;13.73;;;;;;;19.84;45.43;102359.38;5015920;28;20075;-68
2023/04/17 09:54:30;;;;;;;26.60;13.45;;;;;;;19.83;45.29;102369.41;5016412;28;20075;-68
2023/04/17 09:56:56;;;;;;;28.52;13.75;;;;;;;19.91;44.74;102376.81;5016040;28;20039;-68
2023/04/17 09:59:23;;;;;;;26.52;14.48;;;;;;;19.91;45.22;102380.38;4999631;28;20132;-68
2023/04/17 10:01:49;;;;;;;30.55;13.32;;;;;;;19.93;44.50;102375.66;5015781;28;20030;-68
2023/04/17 10:04:15;;;;;;;29.38;13.13;;;;;;;19.91;44.75;102366.78;5016043;28;20063;-68
2023/04/17 10:06:40;;;;;;;23.05;12.82;;;;;;;19.99;44.73;102383.19;5032642;28;20397;-68
2023/04/17 10:09:07;;;;;;;29.60;13.45;;;;;;;19.99;44.13;102376.94;5032067;28;20124;-68
2023/04/17 10:11:38;;;;;;;26.20;13.00;;;;;;;19.98;45.17;102373.34;5032072;28;20493;-68
2023/04/17 10:14:24;;;;;;;25.45;12.63;;;;;;;19.97;45.04;102371.63;5032007;28;20034;-68
2023/04/17 10:16:49;;;;;;;28.02;12.85;;;;;;;19.95;44.05;102367.34;5032145;28;20036;-66
2023/04/17 10:19:30;;;;;;;28.60;13.02;;;;;;;19.95;44.59;102368.19;5015692;28;20381;-69
2023/04/17 10:22:14;;;;;;;29.85;13.20;;;;;;;20.05;44.09;102369.00;5015627;28;20031;-67
2023/04/17 10:25:12;;;;;;;25.63;12.32;;;;;;;20.12;43.73;102367.38;5032605;28;20382;-67
2023/04/17 10:27:40;;;;;;;22.92;11.85;;;;;;;20.17;44.03;102361.47;5048507;28;20582;-69
2023/04/17 10:30:13;;;;;;;28.38;12.90;;;;;;;20.26;44.10;102357.84;5031993;28;20044;-67
2023/04/17 10:32:43;;;;;;;25.17;12.35;;;;;;;20.29;43.88;102355.69;5033184;28;20041;-68
2023/04/17 10:35:15;;;;;;;29.05;13.30;;;;;;;20.35;44.02;102356.06;5015345;28;20033;-69
2023/04/17 10:37:49;;;;;;;27.77;12.75;;;;;;;20.42;43.55;102355.28;5031626;28;20509;-66
2023/04/17 10:40:23;;;;;;;25.63;12.95;;;;;;;20.49;43.70;102355.53;5033030;28;20115;-67
2023/04/17 10:43:13;;;;;;;29.50;13.68;;;;;;;20.62;43.18;102350.53;5031976;28;20477;-67
2023/04/17 10:45:58;;;;;;;25.08;12.55;;;;;;;20.74;43.67;102346.56;5032271;28;20520;-67
2023/04/17 10:48:36;;;;;;;27.83;13.50;;;;;;;20.87;43.31;102344.25;5033073;28;20049;-67
2023/04/17 10:51:28;;;;;;;26.42;13.27;;;;;;;21.08;43.13;102352.94;5031721;28;20057;-67
2023/04/17 10:54:00;;;;;;;31.02;14.68;;;;;;;21.21;43.33;102342.50;5031575;28;20124;-67
2023/04/17 10:56:37;;;;;;;25.17;13.10;;;;;;;21.40;42.03;102342.25;5015050;28;20040;-68
2023/04/17 10:59:06;;;;;;;31.92;14.77;;;;;;;21.41;43.37;102333.03;5014973;28;20080;-68
2023/04/17 11:01:47;;;;;;;30.63;14.98;;;;;;;21.92;41.94;102336.69;5031443;28;20458;-68
2023/04/17 11:04:26;;;;;;;27.77;14.70;;;;;;;21.98;42.57;102336.00;5035068;28;20037;-67
2023/04/17 11:06:53;;;;;;;32.53;15.88;;;;;;;21.99;41.91;102335.88;5035324;28;20397;-67
2023/04/17 11:09:23;;;;;;;29.85;15.50;;;;;;;22.05;42.52;102331.63;5036197;28;20021;-68